Terminal Aerodrome Forecast
Issued by NWS

Home | Current Version | Previous Version | Text Only | Print | Product List | Glossary On
Versions: 1 2 3 4 5 6 7 8 9 10 11 12 13 14 15 16 17 18 19 20 21 22 23 24 25 26 27 28 29 30 31 32 33 34 35 36 37 38
000
FTUS45 KBOU 010305 AAA
TAFAPA
TAF AMD
KAPA 010305Z 0103/0124 36007KT P6SM FEW080 BKN120
     FM010430 02009KT P6SM VCTS SCT080CB BKN130
      TEMPO 0105/0106 VRB16G24KT BKN080CB
     FM011000 28005KT P6SM SCT120 BKN220
     FM011800 01007KT P6SM SCT080 BKN200 PROB30 0121/0124 VRB20G30KT
      -TSRA BKN080CB=

USA.gov is the U.S. government's official web portal to all federal, state and local government web resources and services.